createdAt,value
2019-04-30T00:01:00.556Z,35.70
2019-04-30T00:03:38.184Z,30.90
2019-04-30T00:06:07.631Z,31.83
2019-04-30T00:08:39.111Z,32.70
2019-04-30T00:11:10.938Z,30.47
2019-04-30T00:13:40.369Z,34.77
2019-04-30T00:16:09.362Z,35.97
2019-04-30T00:18:39.746Z,35.93
2019-04-30T00:21:15.169Z,33.43
2019-04-30T00:23:42.695Z,33.70
2019-04-30T00:26:12.500Z,34.77
2019-04-30T00:28:46.273Z,33.60
2019-04-30T00:31:17.334Z,35.53
2019-04-30T00:33:47.391Z,32.80
2019-04-30T00:36:18.338Z,30.03
2019-04-30T00:38:51.785Z,32.73
2019-04-30T00:41:20.932Z,32.13
2019-04-30T00:43:50.866Z,37.03
2019-04-30T00:46:25.322Z,34.30
2019-04-30T00:48:51.372Z,36.93
2019-04-30T00:51:21.768Z,29.83
2019-04-30T00:53:55.789Z,36.20
2019-04-30T00:56:31.612Z,31.07
2019-04-30T00:59:02.694Z,33.70
2019-04-30T01:01:51.551Z,31.50
2019-04-30T01:04:28.360Z,32.57
2019-04-30T01:07:00.255Z,31.77
2019-04-30T01:09:31.044Z,33.67
2019-04-30T01:12:00.224Z,28.33
2019-04-30T01:14:32.006Z,27.80
2019-04-30T01:17:03.728Z,30.30
2019-04-30T01:19:33.033Z,28.57
2019-04-30T01:22:02.951Z,34.20
2019-04-30T01:24:32.813Z,30.90
2019-04-30T01:27:06.834Z,30.43
2019-04-30T01:29:40.927Z,28.10
2019-04-30T01:32:10.414Z,26.17
2019-04-30T01:34:36.913Z,28.83
2019-04-30T01:37:06.255Z,30.63
2019-04-30T01:39:39.175Z,32.70
2019-04-30T01:42:11.345Z,30.77
2019-04-30T01:44:43.580Z,26.00
2019-04-30T01:47:16.053Z,29.13
2019-04-30T01:49:46.553Z,27.60
2019-04-30T01:52:16.160Z,34.07
2019-04-30T01:54:45.260Z,31.07
2019-04-30T01:57:35.757Z,31.13
2019-04-30T02:00:35.155Z,30.63
2019-04-30T02:03:06.461Z,29.20
2019-04-30T02:05:38.832Z,29.73
2019-04-30T02:08:19.521Z,32.23
2019-04-30T02:10:51.384Z,29.90
2019-04-30T02:13:20.480Z,30.10
2019-04-30T02:15:51.260Z,27.60
2019-04-30T02:18:20.261Z,30.17
2019-04-30T02:20:49.798Z,30.80
2019-04-30T02:23:19.884Z,29.43
2019-04-30T02:25:49.224Z,27.93
2019-04-30T02:28:19.108Z,29.73
2019-04-30T02:30:50.354Z,26.97
2019-04-30T02:33:21.018Z,28.90
2019-04-30T02:36:20.073Z,29.27
2019-04-30T02:38:51.356Z,28.97
2019-04-30T02:41:22.153Z,29.40
2019-04-30T02:43:59.794Z,27.07
2019-04-30T02:46:34.090Z,27.97
2019-04-30T02:49:06.240Z,26.03
2019-04-30T02:51:39.979Z,26.70
2019-04-30T02:54:24.690Z,25.40
2019-04-30T02:57:03.918Z,24.23
2019-04-30T02:59:36.653Z,26.97
2019-04-30T03:02:11.513Z,25.60
2019-04-30T03:04:39.635Z,25.30
2019-04-30T03:07:09.822Z,25.37
2019-04-30T03:09:40.806Z,24.67
2019-04-30T03:12:11.452Z,24.10
2019-04-30T03:14:42.216Z,20.03
2019-04-30T03:17:20.939Z,24.57
2019-04-30T03:20:04.883Z,23.47
2019-04-30T03:22:35.385Z,20.23
2019-04-30T03:25:06.431Z,23.50
2019-04-30T03:27:35.309Z,25.43
2019-04-30T03:30:13.006Z,23.50
2019-04-30T03:32:50.504Z,28.20
2019-04-30T03:35:22.696Z,23.53
2019-04-30T03:37:49.771Z,24.03
2019-04-30T03:40:20.260Z,22.60
2019-04-30T03:42:49.843Z,26.23
2019-04-30T03:45:22.549Z,24.90
2019-04-30T03:47:54.474Z,22.27
2019-04-30T03:50:32.879Z,27.40
2019-04-30T03:52:57.164Z,22.27
2019-04-30T03:55:26.378Z,24.90
2019-04-30T03:58:00.072Z,22.93
2019-04-30T04:00:42.164Z,26.03
2019-04-30T04:03:11.320Z,19.90
2019-04-30T04:06:09.495Z,17.33
2019-04-30T04:08:55.167Z,19.50
2019-04-30T04:11:29.899Z,21.47
2019-04-30T04:13:59.772Z,22.30
2019-04-30T04:16:32.170Z,23.90
2019-04-30T04:19:03.669Z,25.27
2019-04-30T04:21:34.585Z,18.07
2019-04-30T04:24:04.909Z,25.67
2019-04-30T04:26:34.135Z,21.33
2019-04-30T04:29:03.308Z,24.23
2019-04-30T04:31:32.985Z,19.83
2019-04-30T04:34:02.256Z,25.87
2019-04-30T04:36:31.397Z,25.90
2019-04-30T04:39:00.422Z,19.30
2019-04-30T04:41:30.032Z,24.63
2019-04-30T04:44:03.327Z,24.50
2019-04-30T04:46:33.035Z,21.07
2019-04-30T04:49:03.492Z,21.53
2019-04-30T04:51:38.683Z,21.77
2019-04-30T04:54:10.306Z,21.77
2019-04-30T04:56:46.501Z,26.00
2019-04-30T04:59:16.718Z,22.13
2019-04-30T05:01:45.907Z,22.80
2019-04-30T05:04:15.968Z,22.60
2019-04-30T05:06:45.200Z,25.80
2019-04-30T05:09:19.870Z,21.37
2019-04-30T05:11:50.320Z,20.20
2019-04-30T05:14:20.340Z,19.70
2019-04-30T05:16:49.549Z,24.07
2019-04-30T05:19:21.020Z,25.10
2019-04-30T05:21:51.709Z,25.00
2019-04-30T05:24:21.395Z,20.83
2019-04-30T05:26:50.555Z,24.50
2019-04-30T05:29:22.080Z,21.63
2019-04-30T05:31:53.232Z,19.73
2019-04-30T05:34:24.908Z,20.43
2019-04-30T05:36:54.638Z,19.70
2019-04-30T05:39:24.690Z,18.20
2019-04-30T05:41:53.511Z,21.30
2019-04-30T05:44:22.827Z,20.37
2019-04-30T05:46:54.140Z,20.30
2019-04-30T05:49:24.759Z,17.83
2019-04-30T05:51:56.067Z,22.30
2019-04-30T05:54:25.524Z,19.70
2019-04-30T05:56:56.732Z,18.00
2019-04-30T05:59:25.617Z,16.67
2019-04-30T06:01:55.536Z,20.60
2019-04-30T06:04:25.540Z,18.73
2019-04-30T06:06:54.504Z,19.77
2019-04-30T06:09:43.434Z,20.57
2019-04-30T06:12:30.387Z,19.10
2019-04-30T06:15:11.717Z,17.07
2019-04-30T06:17:42.020Z,16.70
2019-04-30T06:20:18.380Z,20.13
2019-04-30T06:22:44.624Z,19.00
2019-04-30T06:25:26.849Z,18.40
2019-04-30T06:27:45.660Z,14.77
2019-04-30T06:30:15.195Z,17.77
2019-04-30T06:32:44.538Z,14.17
2019-04-30T06:35:14.817Z,16.70
2019-04-30T06:37:43.760Z,16.80
2019-04-30T06:40:14.672Z,16.10
2019-04-30T06:42:44.528Z,15.50
2019-04-30T06:45:14.286Z,16.20
2019-04-30T06:47:43.768Z,14.33
2019-04-30T06:50:14.389Z,14.50
2019-04-30T06:52:54.234Z,14.60
2019-04-30T06:55:16.482Z,17.77
2019-04-30T06:57:47.099Z,11.63
2019-04-30T07:00:20.770Z,13.07
2019-04-30T07:02:49.561Z,9.43
2019-04-30T07:05:18.771Z,10.80
2019-04-30T07:08:11.394Z,10.80
2019-04-30T07:10:38.074Z,12.37
2019-04-30T07:13:25.839Z,11.23
2019-04-30T07:15:58.491Z,12.17
2019-04-30T07:18:28.854Z,8.73
2019-04-30T07:20:58.740Z,10.07
2019-04-30T07:23:28.875Z,8.87
2019-04-30T07:25:59.069Z,10.43
2019-04-30T07:28:54.292Z,9.33
2019-04-30T07:31:22.231Z,8.23
2019-04-30T07:33:53.755Z,7.33
2019-04-30T07:36:41.879Z,7.03
2019-04-30T07:38:56.419Z,6.93
2019-04-30T07:41:26.928Z,7.73
2019-04-30T07:44:06.151Z,6.03
2019-04-30T07:46:41.168Z,6.33
2019-04-30T07:49:10.086Z,5.97
2019-04-30T07:51:41.746Z,5.53
2019-04-30T07:54:10.799Z,6.97
2019-04-30T07:56:41.661Z,7.10
2019-04-30T07:59:11.688Z,8.63
2019-04-30T08:02:00.495Z,7.00
2019-04-30T08:04:30.640Z,6.50
2019-04-30T08:07:04.877Z,11.80
2019-04-30T08:09:41.462Z,7.07
2019-04-30T08:12:07.012Z,9.07
2019-04-30T08:14:39.072Z,5.47
2019-04-30T08:17:08.914Z,8.33
2019-04-30T08:19:38.482Z,8.70
2019-04-30T08:22:09.596Z,7.97
2019-04-30T08:24:39.235Z,8.07
2019-04-30T08:27:09.714Z,6.63
2019-04-30T08:29:39.787Z,9.07
2019-04-30T08:32:09.348Z,11.20
2019-04-30T08:34:40.544Z,8.40
2019-04-30T08:37:17.469Z,7.50
2019-04-30T08:39:45.412Z,8.07
2019-04-30T08:42:15.048Z,12.13
2019-04-30T08:44:44.878Z,7.87
2019-04-30T08:47:14.497Z,8.30
2019-04-30T08:49:46.053Z,10.00
2019-04-30T08:52:19.154Z,10.00
2019-04-30T08:54:49.632Z,8.30
2019-04-30T08:57:19.207Z,7.83
2019-04-30T08:59:51.216Z,8.97
2019-04-30T09:02:22.006Z,7.90
2019-04-30T09:04:54.330Z,7.13
2019-04-30T09:07:24.543Z,7.83
2019-04-30T09:09:53.461Z,7.70
2019-04-30T09:12:23.960Z,11.93
2019-04-30T09:14:55.739Z,8.13
2019-04-30T09:17:24.644Z,6.93
2019-04-30T09:19:56.148Z,6.60
2019-04-30T09:22:25.572Z,9.27
2019-04-30T09:24:56.444Z,6.37
2019-04-30T09:27:29.640Z,8.53
2019-04-30T09:29:59.647Z,7.50
2019-04-30T09:32:30.784Z,7.47
2019-04-30T09:35:02.804Z,8.40
2019-04-30T09:37:31.765Z,7.00
2019-04-30T09:40:02.141Z,8.73
2019-04-30T09:42:31.766Z,7.40
2019-04-30T09:45:04.050Z,8.07
2019-04-30T09:47:33.423Z,7.80
2019-04-30T09:50:03.574Z,6.67
2019-04-30T09:52:35.831Z,7.93
2019-04-30T09:55:04.921Z,7.90
2019-04-30T09:57:39.175Z,6.03
2019-04-30T10:00:09.486Z,9.53
2019-04-30T10:02:38.895Z,7.60
2019-04-30T10:05:08.792Z,6.57
2019-04-30T10:07:39.346Z,7.40
2019-04-30T10:10:12.043Z,6.20
2019-04-30T10:12:43.885Z,6.97
2019-04-30T10:15:18.933Z,6.37
2019-04-30T10:17:51.268Z,6.07
2019-04-30T10:20:23.610Z,5.63
2019-04-30T10:22:53.732Z,7.47
2019-04-30T10:25:24.364Z,6.17
2019-04-30T10:27:53.963Z,7.23
2019-04-30T10:30:26.268Z,5.33
2019-04-30T10:32:56.320Z,9.67
2019-04-30T10:35:25.983Z,8.70
2019-04-30T10:37:54.963Z,6.10
2019-04-30T10:40:28.633Z,5.90
2019-04-30T10:42:58.627Z,9.23
2019-04-30T10:45:29.058Z,4.97
2019-04-30T10:47:59.221Z,5.70
2019-04-30T10:50:29.368Z,7.33
2019-04-30T10:52:59.859Z,5.50
2019-04-30T10:55:31.165Z,3.90
2019-04-30T10:58:00.403Z,5.73
2019-04-30T11:00:49.862Z,4.97
2019-04-30T11:03:22.477Z,7.63
2019-04-30T11:05:50.633Z,6.40
2019-04-30T11:08:21.285Z,4.30
2019-04-30T11:10:51.586Z,6.00
2019-04-30T11:13:22.347Z,5.10
2019-04-30T11:15:51.839Z,4.70
2019-04-30T11:18:23.387Z,5.80
2019-04-30T11:20:53.351Z,4.93
2019-04-30T11:23:23.373Z,6.47
2019-04-30T11:25:53.887Z,5.53
2019-04-30T11:28:27.250Z,6.93
2019-04-30T11:31:19.224Z,4.97
2019-04-30T11:33:49.427Z,8.83
2019-04-30T11:36:19.824Z,5.27
2019-04-30T11:38:50.023Z,6.50
2019-04-30T11:41:30.091Z,4.90
2019-04-30T11:43:51.305Z,6.23
2019-04-30T11:47:03.142Z,4.30
2019-04-30T11:49:32.379Z,4.53
2019-04-30T11:52:02.732Z,4.90
2019-04-30T11:54:32.904Z,5.33
2019-04-30T11:57:04.534Z,8.17
2019-04-30T11:59:34.441Z,4.53
2019-04-30T12:02:09.664Z,8.20
2019-04-30T12:04:40.130Z,7.20
2019-04-30T12:07:17.482Z,5.10
2019-04-30T12:09:56.720Z,6.93
2019-04-30T12:12:26.416Z,4.83
2019-04-30T12:14:55.716Z,5.33
2019-04-30T12:17:25.267Z,5.70
2019-04-30T12:19:58.635Z,5.90
2019-04-30T12:22:29.861Z,4.67
2019-04-30T12:25:03.292Z,6.03
2019-04-30T12:27:31.066Z,4.70
2019-04-30T12:30:00.484Z,5.60
2019-04-30T12:32:29.952Z,8.23
2019-04-30T12:34:59.878Z,6.60
2019-04-30T12:37:29.140Z,6.13
2019-04-30T12:39:59.383Z,8.00
2019-04-30T12:42:38.438Z,5.43
2019-04-30T12:45:09.449Z,5.07
2019-04-30T12:47:43.457Z,6.07
2019-04-30T12:50:21.393Z,4.43
2019-04-30T12:52:59.756Z,6.23
2019-04-30T12:55:50.768Z,4.50
2019-04-30T12:58:20.795Z,8.30
2019-04-30T13:00:50.052Z,5.60
2019-04-30T13:03:20.966Z,7.13
2019-04-30T13:05:51.749Z,5.80
2019-04-30T13:08:23.056Z,6.97
2019-04-30T13:10:52.800Z,7.70
2019-04-30T13:13:24.783Z,6.00
2019-04-30T13:15:55.460Z,5.73
2019-04-30T13:18:24.419Z,8.90
2019-04-30T13:20:54.112Z,6.63
2019-04-30T13:23:24.745Z,5.83
2019-04-30T13:25:53.877Z,6.07
2019-04-30T13:28:24.726Z,5.63
2019-04-30T13:30:53.825Z,6.80
2019-04-30T13:33:33.142Z,8.70
2019-04-30T13:36:03.150Z,6.00
2019-04-30T13:38:49.154Z,5.63
2019-04-30T13:41:22.745Z,5.87
2019-04-30T13:44:10.044Z,8.93
2019-04-30T13:46:42.908Z,6.67
2019-04-30T13:49:11.787Z,6.93
2019-04-30T13:51:42.965Z,6.13
2019-04-30T13:54:12.108Z,7.00
2019-04-30T13:56:41.695Z,6.93
2019-04-30T13:59:11.188Z,7.10
2019-04-30T14:01:41.821Z,7.80
2019-04-30T14:04:26.951Z,7.10
2019-04-30T14:07:24.003Z,6.40
2019-04-30T14:09:54.155Z,9.27
2019-04-30T14:12:23.855Z,6.10
2019-04-30T14:14:53.088Z,6.30
2019-04-30T14:17:23.320Z,7.37
2019-04-30T14:19:52.573Z,7.43
2019-04-30T14:22:23.895Z,6.17
2019-04-30T14:24:52.661Z,6.27
2019-04-30T14:27:27.276Z,9.20
2019-04-30T14:29:59.318Z,9.77
2019-04-30T14:32:28.683Z,6.33
2019-04-30T14:34:58.959Z,6.70
2019-04-30T14:37:29.717Z,6.83
2019-04-30T14:40:00.836Z,8.30
2019-04-30T14:42:37.080Z,6.97
2019-04-30T14:45:19.120Z,7.30
2019-04-30T14:48:01.632Z,7.67
2019-04-30T14:50:31.899Z,6.23
2019-04-30T14:53:09.392Z,9.37
2019-04-30T14:56:08.810Z,5.73
2019-04-30T14:58:56.331Z,7.10
2019-04-30T15:01:44.160Z,7.70
2019-04-30T15:04:13.936Z,8.90
2019-04-30T15:06:48.652Z,6.03
2019-04-30T15:09:19.229Z,6.30
2019-04-30T15:11:48.681Z,7.07
2019-04-30T15:14:18.279Z,6.87
2019-04-30T15:16:47.560Z,8.47
2019-04-30T15:19:18.129Z,8.43
2019-04-30T15:21:48.283Z,7.47
2019-04-30T15:24:34.328Z,5.90
2019-04-30T15:27:05.541Z,6.30
2019-04-30T15:29:35.571Z,6.40
2019-04-30T15:32:04.949Z,9.20
2019-04-30T15:34:35.568Z,7.37
2019-04-30T15:37:04.591Z,8.10
2019-04-30T15:39:42.734Z,6.80
2019-04-30T15:42:12.856Z,8.77
2019-04-30T15:44:45.920Z,7.80
2019-04-30T15:47:18.925Z,7.60
2019-04-30T15:49:48.096Z,9.37
2019-04-30T15:52:18.952Z,7.40
2019-04-30T15:54:49.083Z,6.50
2019-04-30T15:57:19.049Z,8.00
2019-04-30T15:59:48.027Z,7.70
2019-04-30T16:02:53.349Z,7.07
2019-04-30T16:05:41.356Z,6.40
2019-04-30T16:08:24.671Z,9.00
2019-04-30T16:11:19.461Z,7.63
2019-04-30T16:14:13.134Z,8.00
2019-04-30T16:16:48.413Z,7.33
2019-04-30T16:19:18.775Z,5.93
2019-04-30T16:21:48.905Z,7.63
2019-04-30T16:24:20.212Z,9.10
2019-04-30T16:26:52.661Z,8.17
2019-04-30T16:29:24.403Z,8.80
2019-04-30T16:32:05.588Z,7.10
2019-04-30T16:34:35.479Z,7.43
2019-04-30T16:37:05.228Z,8.23
2019-04-30T16:39:34.663Z,7.40
2019-04-30T16:42:04.521Z,8.27
2019-04-30T16:44:36.248Z,8.87
2019-04-30T16:47:13.460Z,6.90
2019-04-30T16:49:38.751Z,8.00
2019-04-30T16:52:09.178Z,9.93
2019-04-30T16:54:39.522Z,6.17
2019-04-30T16:57:10.321Z,9.40
2019-04-30T16:59:41.823Z,7.40
2019-04-30T17:02:13.505Z,7.20
2019-04-30T17:04:49.495Z,7.50
2019-04-30T17:07:38.719Z,6.10
2019-04-30T17:10:12.912Z,5.40
2019-04-30T17:12:51.494Z,6.50
2019-04-30T17:15:24.076Z,5.80
2019-04-30T17:17:54.192Z,7.07
2019-04-30T17:20:23.479Z,6.97
2019-04-30T17:22:52.640Z,6.07
2019-04-30T17:25:24.482Z,5.90
2019-04-30T17:27:56.064Z,11.63
2019-04-30T17:30:25.812Z,6.10
2019-04-30T17:32:54.987Z,8.60
2019-04-30T17:35:24.287Z,6.43
2019-04-30T17:37:54.312Z,7.20
2019-04-30T17:40:25.137Z,6.73
2019-04-30T17:42:55.088Z,8.57
2019-04-30T17:45:25.430Z,7.37
2019-04-30T17:47:54.608Z,9.63
2019-04-30T17:50:23.851Z,8.30
2019-04-30T17:52:54.064Z,7.97
2019-04-30T17:55:25.600Z,11.30
2019-04-30T17:57:55.083Z,9.10
2019-04-30T18:00:26.632Z,7.67
2019-04-30T18:02:57.592Z,6.70
2019-04-30T18:05:29.244Z,7.50
2019-04-30T18:07:58.471Z,7.30
2019-04-30T18:10:30.439Z,9.87
2019-04-30T18:12:59.440Z,7.07
2019-04-30T18:15:30.347Z,11.23
2019-04-30T18:18:10.575Z,10.43
2019-04-30T18:21:03.732Z,7.23
2019-04-30T18:24:13.255Z,7.57
2019-04-30T18:26:52.844Z,8.30
2019-04-30T18:29:22.217Z,9.10
2019-04-30T18:31:51.528Z,11.50
2019-04-30T18:34:21.242Z,12.30
2019-04-30T18:36:51.414Z,7.13
2019-04-30T18:39:21.715Z,9.43
2019-04-30T18:41:50.863Z,7.87
2019-04-30T18:44:21.245Z,9.03
2019-04-30T18:46:53.632Z,9.17
2019-04-30T18:49:22.645Z,10.23
2019-04-30T18:51:51.928Z,8.87
2019-04-30T18:54:22.316Z,8.90
2019-04-30T18:56:52.244Z,8.13
2019-04-30T18:59:22.936Z,8.60
2019-04-30T19:01:53.056Z,7.23
2019-04-30T19:04:21.852Z,10.00
2019-04-30T19:06:52.616Z,11.17
2019-04-30T19:09:49.731Z,11.80
2019-04-30T19:12:41.467Z,16.40
2019-04-30T19:15:41.320Z,14.53
2019-04-30T19:18:19.103Z,11.20
2019-04-30T19:20:52.470Z,9.73
2019-04-30T19:23:21.518Z,11.43
2019-04-30T19:25:50.868Z,10.10
2019-04-30T19:28:20.087Z,10.50
2019-04-30T19:30:57.607Z,13.07
2019-04-30T19:33:21.525Z,11.40
2019-04-30T19:35:53.446Z,7.53
2019-04-30T19:38:23.000Z,11.97
2019-04-30T19:40:52.804Z,9.60
2019-04-30T19:43:23.074Z,10.47
2019-04-30T19:45:53.561Z,13.53
2019-04-30T19:48:23.197Z,10.97
2019-04-30T19:50:55.343Z,9.23
2019-04-30T19:53:24.940Z,10.00
2019-04-30T19:55:54.167Z,11.53
2019-04-30T19:58:29.364Z,9.37
2019-04-30T20:00:56.360Z,13.07
2019-04-30T20:03:25.535Z,15.17
2019-04-30T20:05:58.678Z,14.60
2019-04-30T20:08:28.723Z,10.60
2019-04-30T20:11:03.194Z,10.60
2019-04-30T20:13:37.051Z,11.33
2019-04-30T20:16:04.211Z,10.40
2019-04-30T20:18:35.147Z,11.50
2019-04-30T20:21:09.888Z,11.20
2019-04-30T20:23:39.093Z,11.93
2019-04-30T20:26:09.392Z,13.20
2019-04-30T20:28:42.253Z,16.50
2019-04-30T20:31:11.615Z,22.47
2019-04-30T20:33:40.944Z,23.47
2019-04-30T20:36:10.116Z,18.07
2019-04-30T20:39:17.997Z,18.60
2019-04-30T20:41:53.359Z,12.80
2019-04-30T20:44:23.399Z,11.90
2019-04-30T20:46:52.275Z,11.50
2019-04-30T20:49:40.380Z,10.97
2019-04-30T20:52:10.863Z,12.50
2019-04-30T20:54:39.815Z,12.50
2019-04-30T20:57:10.127Z,10.30
2019-04-30T20:59:40.122Z,13.70
2019-04-30T21:02:13.173Z,12.30
2019-04-30T21:04:42.491Z,12.17
2019-04-30T21:07:12.259Z,13.17
2019-04-30T21:09:41.447Z,11.40
2019-04-30T21:12:12.158Z,12.97
2019-04-30T21:14:41.369Z,12.93
2019-04-30T21:17:14.206Z,12.13
2019-04-30T21:19:44.716Z,10.50
2019-04-30T21:22:14.055Z,13.07
2019-04-30T21:24:43.693Z,12.80
2019-04-30T21:27:13.418Z,11.70
2019-04-30T21:29:43.299Z,12.33
2019-04-30T21:32:21.328Z,10.00
2019-04-30T21:35:12.250Z,16.70
2019-04-30T21:37:42.077Z,12.67
2019-04-30T21:40:13.083Z,14.00
2019-04-30T21:42:42.379Z,11.27
2019-04-30T21:45:11.379Z,15.90
2019-04-30T21:47:40.568Z,11.77
2019-04-30T21:50:10.350Z,14.10
2019-04-30T21:52:40.912Z,14.13
2019-04-30T21:55:11.483Z,12.77
2019-04-30T21:57:41.342Z,16.87
2019-04-30T22:00:15.332Z,15.47
2019-04-30T22:02:44.610Z,13.60
2019-04-30T22:05:13.961Z,14.27
2019-04-30T22:07:44.790Z,16.10
2019-04-30T22:10:14.091Z,13.90
2019-04-30T22:12:45.546Z,11.63
2019-04-30T22:15:15.970Z,10.90
2019-04-30T22:17:45.484Z,14.57
2019-04-30T22:20:19.044Z,15.27
2019-04-30T22:22:49.994Z,15.03
2019-04-30T22:25:20.178Z,14.73
2019-04-30T22:28:08.688Z,17.00
2019-04-30T22:30:39.816Z,17.00
2019-04-30T22:33:08.929Z,13.00
2019-04-30T22:35:49.487Z,19.97
2019-04-30T22:38:42.285Z,17.33
2019-04-30T22:41:11.656Z,20.30
2019-04-30T22:43:43.513Z,14.67
2019-04-30T22:46:15.107Z,14.23
2019-04-30T22:48:44.117Z,13.37
2019-04-30T22:51:13.105Z,16.17
2019-04-30T22:53:42.332Z,17.70
2019-04-30T22:56:12.232Z,15.87
2019-04-30T22:58:41.500Z,21.30
2019-04-30T23:01:33.528Z,14.37
2019-04-30T23:04:37.768Z,16.10
2019-04-30T23:07:06.881Z,14.10
2019-04-30T23:09:36.631Z,18.80
2019-04-30T23:12:06.072Z,17.13
2019-04-30T23:14:35.763Z,15.03
2019-04-30T23:17:06.167Z,17.70
2019-04-30T23:19:38.404Z,15.30
2019-04-30T23:22:08.953Z,14.80
2019-04-30T23:24:38.668Z,15.67
2019-04-30T23:27:08.007Z,16.83
2019-04-30T23:29:37.681Z,19.80
2019-04-30T23:32:08.260Z,15.77
2019-04-30T23:34:37.043Z,18.30
2019-04-30T23:37:17.707Z,16.43
2019-04-30T23:39:49.662Z,17.03
2019-04-30T23:42:20.487Z,19.13
2019-04-30T23:44:49.496Z,16.40
2019-04-30T23:47:20.630Z,15.73
2019-04-30T23:49:51.819Z,17.80
2019-04-30T23:52:23.016Z,15.70
2019-04-30T23:54:52.117Z,18.87
2019-04-30T23:57:22.288Z,19.13
2019-04-30T23:59:51.813Z,24.10
